sensor_id;sensor_type;location;lat;lon;timestamp;P1;durP1;ratioP1;P2;durP2;ratioP2
28862;SDS011;15994;51.796;13.006;2023-02-28T00:00:49;4.50;;;2.17;;
28862;SDS011;15994;51.796;13.006;2023-02-28T00:03:16;6.13;;;2.30;;
28862;SDS011;15994;51.796;13.006;2023-02-28T00:05:42;4.28;;;2.22;;
28862;SDS011;15994;51.796;13.006;2023-02-28T00:08:09;4.20;;;2.13;;
28862;SDS011;15994;51.796;13.006;2023-02-28T00:10:36;5.05;;;1.80;;
28862;SDS011;15994;51.796;13.006;2023-02-28T00:13:04;4.05;;;2.03;;
28862;SDS011;15994;51.796;13.006;2023-02-28T00:15:32;4.10;;;2.33;;
28862;SDS011;15994;51.796;13.006;2023-02-28T00:17:59;4.13;;;2.30;;
28862;SDS011;15994;51.796;13.006;2023-02-28T00:20:26;4.82;;;2.22;;
28862;SDS011;15994;51.796;13.006;2023-02-28T00:22:53;4.97;;;2.10;;
28862;SDS011;15994;51.796;13.006;2023-02-28T00:25:24;5.63;;;2.53;;
28862;SDS011;15994;51.796;13.006;2023-02-28T00:27:51;4.20;;;2.40;;
28862;SDS011;15994;51.796;13.006;2023-02-28T00:30:20;5.65;;;2.45;;
28862;SDS011;15994;51.796;13.006;2023-02-28T00:32:48;4.05;;;2.03;;
28862;SDS011;15994;51.796;13.006;2023-02-28T00:35:16;5.22;;;2.10;;
28862;SDS011;15994;51.796;13.006;2023-02-28T00:37:43;5.70;;;2.63;;
28862;SDS011;15994;51.796;13.006;2023-02-28T00:40:10;4.45;;;2.38;;
28862;SDS011;15994;51.796;13.006;2023-02-28T00:42:37;3.90;;;2.25;;
28862;SDS011;15994;51.796;13.006;2023-02-28T00:45:04;5.10;;;2.47;;
28862;SDS011;15994;51.796;13.006;2023-02-28T00:47:31;4.63;;;2.30;;
28862;SDS011;15994;51.796;13.006;2023-02-28T00:49:58;4.68;;;2.10;;
28862;SDS011;15994;51.796;13.006;2023-02-28T00:52:25;4.25;;;2.30;;
28862;SDS011;15994;51.796;13.006;2023-02-28T00:54:52;6.15;;;2.38;;
28862;SDS011;15994;51.796;13.006;2023-02-28T00:57:18;5.35;;;2.55;;
28862;SDS011;15994;51.796;13.006;2023-02-28T00:59:45;5.30;;;2.40;;
28862;SDS011;15994;51.796;13.006;2023-02-28T01:02:11;5.70;;;2.03;;
28862;SDS011;15994;51.796;13.006;2023-02-28T01:04:38;4.20;;;2.35;;
28862;SDS011;15994;51.796;13.006;2023-02-28T01:07:04;5.07;;;2.42;;
28862;SDS011;15994;51.796;13.006;2023-02-28T01:09:31;4.63;;;2.20;;
28862;SDS011;15994;51.796;13.006;2023-02-28T01:11:58;4.80;;;2.10;;
28862;SDS011;15994;51.796;13.006;2023-02-28T01:14:24;4.13;;;2.10;;
28862;SDS011;15994;51.796;13.006;2023-02-28T01:16:51;5.03;;;2.20;;
28862;SDS011;15994;51.796;13.006;2023-02-28T01:19:17;4.30;;;2.10;;
28862;SDS011;15994;51.796;13.006;2023-02-28T01:21:44;3.92;;;2.22;;
28862;SDS011;15994;51.796;13.006;2023-02-28T01:24:10;5.95;;;2.22;;
28862;SDS011;15994;51.796;13.006;2023-02-28T01:26:37;3.92;;;2.05;;
28862;SDS011;15994;51.796;13.006;2023-02-28T01:29:03;4.25;;;2.13;;
28862;SDS011;15994;51.796;13.006;2023-02-28T01:31:30;5.10;;;2.47;;
28862;SDS011;15994;51.796;13.006;2023-02-28T01:33:56;4.95;;;2.38;;
28862;SDS011;15994;51.796;13.006;2023-02-28T01:36:23;5.15;;;2.03;;
28862;SDS011;15994;51.796;13.006;2023-02-28T01:38:51;4.78;;;2.30;;
28862;SDS011;15994;51.796;13.006;2023-02-28T01:41:19;4.82;;;2.53;;
28862;SDS011;15994;51.796;13.006;2023-02-28T01:46:22;5.90;;;2.05;;
28862;SDS011;15994;51.796;13.006;2023-02-28T01:48:56;5.47;;;2.45;;
28862;SDS011;15994;51.796;13.006;2023-02-28T01:51:29;6.57;;;2.58;;
28862;SDS011;15994;51.796;13.006;2023-02-28T01:54:06;6.10;;;2.33;;
28862;SDS011;15994;51.796;13.006;2023-02-28T01:56:38;4.43;;;2.50;;
28862;SDS011;15994;51.796;13.006;2023-02-28T01:59:09;6.47;;;2.10;;
28862;SDS011;15994;51.796;13.006;2023-02-28T02:01:38;4.38;;;2.13;;
28862;SDS011;15994;51.796;13.006;2023-02-28T02:04:05;4.90;;;2.15;;
28862;SDS011;15994;51.796;13.006;2023-02-28T02:06:35;4.72;;;1.95;;
28862;SDS011;15994;51.796;13.006;2023-02-28T02:09:06;5.47;;;2.20;;
28862;SDS011;15994;51.796;13.006;2023-02-28T02:11:33;3.45;;;1.95;;
28862;SDS011;15994;51.796;13.006;2023-02-28T02:14:10;5.13;;;2.45;;
28862;SDS011;15994;51.796;13.006;2023-02-28T02:25:19;6.65;;;2.72;;
28862;SDS011;15994;51.796;13.006;2023-02-28T02:33:45;4.82;;;2.35;;
28862;SDS011;15994;51.796;13.006;2023-02-28T02:36:37;3.92;;;2.08;;
28862;SDS011;15994;51.796;13.006;2023-02-28T02:42:02;4.40;;;2.00;;
28862;SDS011;15994;51.796;13.006;2023-02-28T02:44:42;4.20;;;2.22;;
28862;SDS011;15994;51.796;13.006;2023-02-28T02:47:14;6.38;;;2.30;;
28862;SDS011;15994;51.796;13.006;2023-02-28T02:49:48;5.53;;;2.70;;
28862;SDS011;15994;51.796;13.006;2023-02-28T02:52:18;6.30;;;2.83;;
28862;SDS011;15994;51.796;13.006;2023-02-28T02:54:49;6.88;;;2.42;;
28862;SDS011;15994;51.796;13.006;2023-02-28T03:00:30;5.60;;;2.17;;
28862;SDS011;15994;51.796;13.006;2023-02-28T03:03:00;5.45;;;2.53;;
28862;SDS011;15994;51.796;13.006;2023-02-28T03:05:33;5.30;;;2.33;;
28862;SDS011;15994;51.796;13.006;2023-02-28T03:08:05;5.85;;;2.63;;
28862;SDS011;15994;51.796;13.006;2023-02-28T03:10:45;5.05;;;2.65;;
28862;SDS011;15994;51.796;13.006;2023-02-28T03:24:32;5.97;;;2.65;;
28862;SDS011;15994;51.796;13.006;2023-02-28T03:27:09;5.50;;;3.10;;
28862;SDS011;15994;51.796;13.006;2023-02-28T03:29:44;5.38;;;2.58;;
28862;SDS011;15994;51.796;13.006;2023-02-28T03:34:52;4.65;;;2.55;;
28862;SDS011;15994;51.796;13.006;2023-02-28T03:37:35;4.93;;;2.65;;
28862;SDS011;15994;51.796;13.006;2023-02-28T03:40:05;4.13;;;2.38;;
28862;SDS011;15994;51.796;13.006;2023-02-28T03:42:37;5.22;;;2.35;;
28862;SDS011;15994;51.796;13.006;2023-02-28T03:45:11;6.57;;;2.90;;
28862;SDS011;15994;51.796;13.006;2023-02-28T03:47:51;6.22;;;2.78;;
28862;SDS011;15994;51.796;13.006;2023-02-28T03:50:24;6.18;;;2.78;;
28862;SDS011;15994;51.796;13.006;2023-02-28T03:53:02;6.97;;;2.72;;
28862;SDS011;15994;51.796;13.006;2023-02-28T03:55:42;5.70;;;2.72;;
28862;SDS011;15994;51.796;13.006;2023-02-28T04:00:52;5.90;;;2.83;;
28862;SDS011;15994;51.796;13.006;2023-02-28T04:03:25;6.13;;;3.10;;
28862;SDS011;15994;51.796;13.006;2023-02-28T04:05:52;4.72;;;2.97;;
28862;SDS011;15994;51.796;13.006;2023-02-28T04:08:20;4.47;;;2.75;;
28862;SDS011;15994;51.796;13.006;2023-02-28T04:10:49;5.00;;;2.80;;
28862;SDS011;15994;51.796;13.006;2023-02-28T04:13:22;4.65;;;2.50;;
28862;SDS011;15994;51.796;13.006;2023-02-28T04:15:48;8.02;;;3.47;;
28862;SDS011;15994;51.796;13.006;2023-02-28T04:18:15;5.22;;;2.88;;
28862;SDS011;15994;51.796;13.006;2023-02-28T04:20:41;5.70;;;3.47;;
28862;SDS011;15994;51.796;13.006;2023-02-28T04:23:08;9.07;;;3.20;;
28862;SDS011;15994;51.796;13.006;2023-02-28T04:25:34;5.25;;;2.83;;
28862;SDS011;15994;51.796;13.006;2023-02-28T04:28:01;8.60;;;3.55;;
28862;SDS011;15994;51.796;13.006;2023-02-28T04:30:27;8.95;;;3.60;;
28862;SDS011;15994;51.796;13.006;2023-02-28T04:32:54;8.80;;;3.58;;
28862;SDS011;15994;51.796;13.006;2023-02-28T04:35:21;10.20;;;3.88;;
28862;SDS011;15994;51.796;13.006;2023-02-28T04:37:47;6.53;;;3.40;;
28862;SDS011;15994;51.796;13.006;2023-02-28T04:40:14;8.75;;;3.50;;
28862;SDS011;15994;51.796;13.006;2023-02-28T04:42:40;6.00;;;3.20;;
28862;SDS011;15994;51.796;13.006;2023-02-28T04:45:07;6.95;;;3.50;;
28862;SDS011;15994;51.796;13.006;2023-02-28T04:47:35;6.68;;;3.20;;
28862;SDS011;15994;51.796;13.006;2023-02-28T04:50:02;5.05;;;3.22;;
28862;SDS011;15994;51.796;13.006;2023-02-28T04:52:29;8.68;;;3.40;;
28862;SDS011;15994;51.796;13.006;2023-02-28T04:54:55;6.10;;;3.50;;
28862;SDS011;15994;51.796;13.006;2023-02-28T04:57:22;5.07;;;3.25;;
28862;SDS011;15994;51.796;13.006;2023-02-28T04:59:48;5.70;;;2.95;;
28862;SDS011;15994;51.796;13.006;2023-02-28T05:02:15;5.28;;;2.72;;
28862;SDS011;15994;51.796;13.006;2023-02-28T05:04:41;7.53;;;3.20;;
28862;SDS011;15994;51.796;13.006;2023-02-28T05:07:08;5.63;;;3.22;;
28862;SDS011;15994;51.796;13.006;2023-02-28T05:09:34;4.80;;;3.00;;
28862;SDS011;15994;51.796;13.006;2023-02-28T05:12:01;7.38;;;3.05;;
28862;SDS011;15994;51.796;13.006;2023-02-28T05:14:28;5.65;;;2.75;;
28862;SDS011;15994;51.796;13.006;2023-02-28T05:16:54;4.82;;;2.65;;
28862;SDS011;15994;51.796;13.006;2023-02-28T05:19:21;5.72;;;3.15;;
28862;SDS011;15994;51.796;13.006;2023-02-28T05:21:49;6.57;;;3.38;;
28862;SDS011;15994;51.796;13.006;2023-02-28T05:24:17;5.97;;;2.88;;
28862;SDS011;15994;51.796;13.006;2023-02-28T05:26:47;5.47;;;2.80;;
28862;SDS011;15994;51.796;13.006;2023-02-28T05:29:15;7.07;;;2.92;;
28862;SDS011;15994;51.796;13.006;2023-02-28T05:31:41;7.60;;;4.50;;
28862;SDS011;15994;51.796;13.006;2023-02-28T05:34:08;11.35;;;5.57;;
28862;SDS011;15994;51.796;13.006;2023-02-28T05:36:36;16.58;;;6.72;;
28862;SDS011;15994;51.796;13.006;2023-02-28T05:39:04;7.22;;;4.35;;
28862;SDS011;15994;51.796;13.006;2023-02-28T05:41:32;5.50;;;3.47;;
28862;SDS011;15994;51.796;13.006;2023-02-28T05:43:58;6.30;;;3.28;;
28862;SDS011;15994;51.796;13.006;2023-02-28T05:46:26;4.30;;;2.85;;
28862;SDS011;15994;51.796;13.006;2023-02-28T05:48:52;9.23;;;3.50;;
28862;SDS011;15994;51.796;13.006;2023-02-28T05:51:20;8.68;;;4.35;;
28862;SDS011;15994;51.796;13.006;2023-02-28T05:53:47;9.60;;;3.90;;
28862;SDS011;15994;51.796;13.006;2023-02-28T05:56:14;5.88;;;2.88;;
28862;SDS011;15994;51.796;13.006;2023-02-28T05:58:40;5.72;;;3.15;;
28862;SDS011;15994;51.796;13.006;2023-02-28T06:04:13;6.05;;;2.97;;
28862;SDS011;15994;51.796;13.006;2023-02-28T06:06:43;6.30;;;3.88;;
28862;SDS011;15994;51.796;13.006;2023-02-28T06:09:10;7.07;;;3.60;;
28862;SDS011;15994;51.796;13.006;2023-02-28T06:11:37;6.00;;;3.28;;
28862;SDS011;15994;51.796;13.006;2023-02-28T06:14:04;7.35;;;3.83;;
28862;SDS011;15994;51.796;13.006;2023-02-28T06:16:31;8.05;;;4.55;;
28862;SDS011;15994;51.796;13.006;2023-02-28T06:19:00;8.55;;;4.35;;
28862;SDS011;15994;51.796;13.006;2023-02-28T06:21:28;9.15;;;4.78;;
28862;SDS011;15994;51.796;13.006;2023-02-28T06:23:56;11.70;;;4.65;;
28862;SDS011;15994;51.796;13.006;2023-02-28T06:26:24;7.32;;;3.60;;
28862;SDS011;15994;51.796;13.006;2023-02-28T06:28:51;8.15;;;3.60;;
28862;SDS011;15994;51.796;13.006;2023-02-28T06:31:18;5.63;;;2.95;;
28862;SDS011;15994;51.796;13.006;2023-02-28T06:33:45;5.53;;;3.13;;
28862;SDS011;15994;51.796;13.006;2023-02-28T06:36:12;6.25;;;3.00;;
28862;SDS011;15994;51.796;13.006;2023-02-28T06:38:40;4.45;;;2.90;;
28862;SDS011;15994;51.796;13.006;2023-02-28T06:41:06;7.40;;;3.20;;
28862;SDS011;15994;51.796;13.006;2023-02-28T06:43:35;5.93;;;3.00;;
28862;SDS011;15994;51.796;13.006;2023-02-28T06:46:04;6.55;;;3.03;;
28862;SDS011;15994;51.796;13.006;2023-02-28T06:48:33;4.82;;;2.90;;
28862;SDS011;15994;51.796;13.006;2023-02-28T06:51:06;5.93;;;2.85;;
28862;SDS011;15994;51.796;13.006;2023-02-28T06:53:35;7.60;;;2.83;;
28862;SDS011;15994;51.796;13.006;2023-02-28T06:56:05;5.65;;;2.70;;
28862;SDS011;15994;51.796;13.006;2023-02-28T06:58:37;6.38;;;2.85;;
28862;SDS011;15994;51.796;13.006;2023-02-28T07:01:05;5.25;;;3.00;;
28862;SDS011;15994;51.796;13.006;2023-02-28T07:03:32;5.38;;;2.92;;
28862;SDS011;15994;51.796;13.006;2023-02-28T07:06:00;7.90;;;2.78;;
28862;SDS011;15994;51.796;13.006;2023-02-28T07:08:28;5.15;;;2.60;;
28862;SDS011;15994;51.796;13.006;2023-02-28T07:10:56;7.07;;;3.42;;
28862;SDS011;15994;51.796;13.006;2023-02-28T07:13:23;4.55;;;2.63;;
28862;SDS011;15994;51.796;13.006;2023-02-28T07:15:57;5.85;;;3.17;;
28862;SDS011;15994;51.796;13.006;2023-02-28T07:18:25;7.18;;;3.13;;
28862;SDS011;15994;51.796;13.006;2023-02-28T07:20:52;7.55;;;3.20;;
28862;SDS011;15994;51.796;13.006;2023-02-28T07:23:19;5.35;;;2.70;;
28862;SDS011;15994;51.796;13.006;2023-02-28T07:25:46;5.18;;;2.80;;
28862;SDS011;15994;51.796;13.006;2023-02-28T07:28:13;4.45;;;2.78;;
28862;SDS011;15994;51.796;13.006;2023-02-28T07:30:40;6.93;;;3.30;;
28862;SDS011;15994;51.796;13.006;2023-02-28T07:33:07;9.23;;;5.03;;
28862;SDS011;15994;51.796;13.006;2023-02-28T07:35:34;10.82;;;5.20;;
28862;SDS011;15994;51.796;13.006;2023-02-28T07:38:01;11.05;;;6.22;;
28862;SDS011;15994;51.796;13.006;2023-02-28T07:40:27;7.85;;;4.55;;
28862;SDS011;15994;51.796;13.006;2023-02-28T07:42:54;7.53;;;3.53;;
28862;SDS011;15994;51.796;13.006;2023-02-28T07:45:20;10.65;;;3.70;;
28862;SDS011;15994;51.796;13.006;2023-02-28T07:47:47;6.93;;;3.40;;
28862;SDS011;15994;51.796;13.006;2023-02-28T07:50:14;6.60;;;3.80;;
28862;SDS011;15994;51.796;13.006;2023-02-28T07:52:41;6.93;;;3.45;;
28862;SDS011;15994;51.796;13.006;2023-02-28T07:55:08;6.72;;;4.10;;
28862;SDS011;15994;51.796;13.006;2023-02-28T07:57:35;10.63;;;4.47;;
28862;SDS011;15994;51.796;13.006;2023-02-28T08:00:05;10.55;;;4.40;;
28862;SDS011;15994;51.796;13.006;2023-02-28T08:02:34;7.20;;;3.65;;
28862;SDS011;15994;51.796;13.006;2023-02-28T08:05:01;10.27;;;3.90;;
28862;SDS011;15994;51.796;13.006;2023-02-28T08:07:27;10.23;;;4.43;;
28862;SDS011;15994;51.796;13.006;2023-02-28T08:09:54;9.73;;;4.07;;
28862;SDS011;15994;51.796;13.006;2023-02-28T08:12:21;9.15;;;3.97;;
28862;SDS011;15994;51.796;13.006;2023-02-28T08:14:47;8.23;;;3.90;;
28862;SDS011;15994;51.796;13.006;2023-02-28T08:17:14;8.80;;;4.15;;
28862;SDS011;15994;51.796;13.006;2023-02-28T08:19:40;9.50;;;4.18;;
28862;SDS011;15994;51.796;13.006;2023-02-28T08:22:07;8.43;;;4.55;;
28862;SDS011;15994;51.796;13.006;2023-02-28T08:24:33;7.80;;;4.15;;
28862;SDS011;15994;51.796;13.006;2023-02-28T08:27:00;8.48;;;4.07;;
28862;SDS011;15994;51.796;13.006;2023-02-28T08:29:26;8.75;;;4.00;;
28862;SDS011;15994;51.796;13.006;2023-02-28T08:31:54;9.25;;;4.07;;
28862;SDS011;15994;51.796;13.006;2023-02-28T08:34:20;8.13;;;4.20;;
28862;SDS011;15994;51.796;13.006;2023-02-28T08:36:48;11.57;;;4.28;;
28862;SDS011;15994;51.796;13.006;2023-02-28T08:39:14;8.55;;;3.90;;
28862;SDS011;15994;51.796;13.006;2023-02-28T08:41:42;6.70;;;4.05;;
28862;SDS011;15994;51.796;13.006;2023-02-28T08:44:08;6.55;;;3.67;;
28862;SDS011;15994;51.796;13.006;2023-02-28T08:46:35;8.15;;;3.88;;
28862;SDS011;15994;51.796;13.006;2023-02-28T08:49:02;9.23;;;4.20;;
28862;SDS011;15994;51.796;13.006;2023-02-28T08:51:28;8.15;;;4.13;;
28862;SDS011;15994;51.796;13.006;2023-02-28T08:53:55;7.00;;;3.60;;
28862;SDS011;15994;51.796;13.006;2023-02-28T08:56:25;9.75;;;4.00;;
28862;SDS011;15994;51.796;13.006;2023-02-28T08:58:53;8.38;;;3.70;;
28862;SDS011;15994;51.796;13.006;2023-02-28T09:01:22;7.18;;;4.03;;
28862;SDS011;15994;51.796;13.006;2023-02-28T09:03:54;7.93;;;4.20;;
28862;SDS011;15994;51.796;13.006;2023-02-28T09:06:22;5.45;;;2.78;;
28862;SDS011;15994;51.796;13.006;2023-02-28T09:08:50;5.57;;;2.72;;
28862;SDS011;15994;51.796;13.006;2023-02-28T09:11:18;5.68;;;3.08;;
28862;SDS011;15994;51.796;13.006;2023-02-28T09:13:45;9.43;;;3.45;;
28862;SDS011;15994;51.796;13.006;2023-02-28T09:16:12;6.05;;;3.13;;
28862;SDS011;15994;51.796;13.006;2023-02-28T09:18:41;5.82;;;3.15;;
28862;SDS011;15994;51.796;13.006;2023-02-28T09:21:11;7.65;;;3.55;;
28862;SDS011;15994;51.796;13.006;2023-02-28T09:23:41;6.90;;;3.33;;
28862;SDS011;15994;51.796;13.006;2023-02-28T09:26:18;7.10;;;3.65;;
28862;SDS011;15994;51.796;13.006;2023-02-28T09:28:47;7.30;;;3.42;;
28862;SDS011;15994;51.796;13.006;2023-02-28T09:31:14;6.25;;;3.20;;
28862;SDS011;15994;51.796;13.006;2023-02-28T09:33:45;5.50;;;3.15;;
28862;SDS011;15994;51.796;13.006;2023-02-28T09:36:12;5.97;;;3.30;;
28862;SDS011;15994;51.796;13.006;2023-02-28T09:38:39;6.15;;;3.25;;
28862;SDS011;15994;51.796;13.006;2023-02-28T09:41:40;7.78;;;3.95;;
28862;SDS011;15994;51.796;13.006;2023-02-28T09:44:04;7.50;;;3.60;;
28862;SDS011;15994;51.796;13.006;2023-02-28T09:46:43;12.18;;;5.22;;
28862;SDS011;15994;51.796;13.006;2023-02-28T09:49:15;6.78;;;3.90;;
28862;SDS011;15994;51.796;13.006;2023-02-28T09:51:57;7.72;;;3.90;;
28862;SDS011;15994;51.796;13.006;2023-02-28T09:54:30;7.18;;;3.22;;
28862;SDS011;15994;51.796;13.006;2023-02-28T09:59:51;8.55;;;3.53;;
28862;SDS011;15994;51.796;13.006;2023-02-28T10:05:02;7.43;;;3.28;;
28862;SDS011;15994;51.796;13.006;2023-02-28T10:10:07;6.25;;;3.25;;
28862;SDS011;15994;51.796;13.006;2023-02-28T10:12:54;6.45;;;3.42;;
28862;SDS011;15994;51.796;13.006;2023-02-28T10:15:24;6.25;;;3.58;;
28862;SDS011;15994;51.796;13.006;2023-02-28T10:17:56;5.85;;;3.15;;
28862;SDS011;15994;51.796;13.006;2023-02-28T10:20:26;7.38;;;3.25;;
28862;SDS011;15994;51.796;13.006;2023-02-28T10:25:55;5.25;;;2.90;;
28862;SDS011;15994;51.796;13.006;2023-02-28T10:28:25;8.38;;;3.30;;
28862;SDS011;15994;51.796;13.006;2023-02-28T10:30:55;5.78;;;3.38;;
28862;SDS011;15994;51.796;13.006;2023-02-28T10:33:24;7.10;;;3.40;;
28862;SDS011;15994;51.796;13.006;2023-02-28T10:35:55;4.47;;;2.92;;
28862;SDS011;15994;51.796;13.006;2023-02-28T10:38:25;7.60;;;3.47;;
28862;SDS011;15994;51.796;13.006;2023-02-28T10:41:07;6.20;;;3.13;;
28862;SDS011;15994;51.796;13.006;2023-02-28T10:43:42;5.78;;;3.25;;
28862;SDS011;15994;51.796;13.006;2023-02-28T10:48:41;5.45;;;3.00;;
28862;SDS011;15994;51.796;13.006;2023-02-28T10:51:15;5.25;;;3.10;;
28862;SDS011;15994;51.796;13.006;2023-02-28T10:53:47;5.65;;;3.42;;
28862;SDS011;15994;51.796;13.006;2023-02-28T10:56:19;6.40;;;3.75;;
28862;SDS011;15994;51.796;13.006;2023-02-28T10:58:49;8.23;;;3.95;;
28862;SDS011;15994;51.796;13.006;2023-02-28T11:01:58;7.57;;;3.47;;
28862;SDS011;15994;51.796;13.006;2023-02-28T11:04:20;7.30;;;3.47;;
28862;SDS011;15994;51.796;13.006;2023-02-28T11:09:53;5.07;;;3.33;;
28862;SDS011;15994;51.796;13.006;2023-02-28T11:12:36;6.00;;;3.42;;
28862;SDS011;15994;51.796;13.006;2023-02-28T11:15:07;6.65;;;3.60;;
28862;SDS011;15994;51.796;13.006;2023-02-28T11:17:55;7.88;;;3.42;;
28862;SDS011;15994;51.796;13.006;2023-02-28T11:20:37;6.78;;;3.53;;
28862;SDS011;15994;51.796;13.006;2023-02-28T11:23:05;7.47;;;3.90;;
28862;SDS011;15994;51.796;13.006;2023-02-28T11:25:39;7.57;;;3.63;;
28862;SDS011;15994;51.796;13.006;2023-02-28T11:28:06;7.13;;;3.63;;
28862;SDS011;15994;51.796;13.006;2023-02-28T11:30:59;6.05;;;3.25;;
28862;SDS011;15994;51.796;13.006;2023-02-28T11:36:22;6.18;;;3.80;;
28862;SDS011;15994;51.796;13.006;2023-02-28T11:41:37;7.72;;;4.13;;
28862;SDS011;15994;51.796;13.006;2023-02-28T11:47:22;8.15;;;4.35;;
28862;SDS011;15994;51.796;13.006;2023-02-28T11:53:01;7.53;;;3.85;;
28862;SDS011;15994;51.796;13.006;2023-02-28T11:55:36;7.95;;;4.30;;
28862;SDS011;15994;51.796;13.006;2023-02-28T12:00:54;7.13;;;4.22;;
28862;SDS011;15994;51.796;13.006;2023-02-28T12:17:51;10.25;;;4.68;;
28862;SDS011;15994;51.796;13.006;2023-02-28T12:23:47;8.55;;;5.07;;
28862;SDS011;15994;51.796;13.006;2023-02-28T12:28:51;9.75;;;5.32;;
28862;SDS011;15994;51.796;13.006;2023-02-28T12:32:05;9.40;;;5.25;;
28862;SDS011;15994;51.796;13.006;2023-02-28T12:34:43;9.27;;;5.32;;
28862;SDS011;15994;51.796;13.006;2023-02-28T12:37:17;10.77;;;5.43;;
28862;SDS011;15994;51.796;13.006;2023-02-28T12:42:41;8.93;;;5.00;;
28862;SDS011;15994;51.796;13.006;2023-02-28T12:45:19;8.73;;;4.63;;
28862;SDS011;15994;51.796;13.006;2023-02-28T12:47:56;8.65;;;5.00;;
28862;SDS011;15994;51.796;13.006;2023-02-28T12:50:27;9.93;;;5.70;;
28862;SDS011;15994;51.796;13.006;2023-02-28T12:52:59;9.38;;;4.95;;
28862;SDS011;15994;51.796;13.006;2023-02-28T12:58:03;6.90;;;4.50;;
28862;SDS011;15994;51.796;13.006;2023-02-28T13:00:46;6.97;;;4.55;;
28862;SDS011;15994;51.796;13.006;2023-02-28T13:09:19;7.78;;;4.57;;
28862;SDS011;15994;51.796;13.006;2023-02-28T13:11:49;8.07;;;4.93;;
28862;SDS011;15994;51.796;13.006;2023-02-28T13:14:35;8.73;;;5.25;;
28862;SDS011;15994;51.796;13.006;2023-02-28T13:17:09;7.57;;;4.47;;
28862;SDS011;15994;51.796;13.006;2023-02-28T13:19:39;7.38;;;4.20;;
28862;SDS011;15994;51.796;13.006;2023-02-28T13:28:14;6.85;;;3.88;;
28862;SDS011;15994;51.796;13.006;2023-02-28T13:31:19;6.07;;;3.78;;
28862;SDS011;15994;51.796;13.006;2023-02-28T13:38:51;8.32;;;4.32;;
28862;SDS011;15994;51.796;13.006;2023-02-28T13:46:36;6.40;;;3.75;;
28862;SDS011;15994;51.796;13.006;2023-02-28T14:06:32;7.47;;;4.13;;
28862;SDS011;15994;51.796;13.006;2023-02-28T14:08:56;6.22;;;3.30;;
28862;SDS011;15994;51.796;13.006;2023-02-28T14:11:35;7.15;;;3.55;;
28862;SDS011;15994;51.796;13.006;2023-02-28T14:14:04;6.55;;;3.65;;
28862;SDS011;15994;51.796;13.006;2023-02-28T14:16:40;5.53;;;3.47;;
28862;SDS011;15994;51.796;13.006;2023-02-28T14:19:13;6.75;;;4.05;;
28862;SDS011;15994;51.796;13.006;2023-02-28T14:32:51;7.38;;;3.90;;
28862;SDS011;15994;51.796;13.006;2023-02-28T14:35:58;7.20;;;3.63;;
28862;SDS011;15994;51.796;13.006;2023-02-28T14:38:28;5.82;;;3.67;;
28862;SDS011;15994;51.796;13.006;2023-02-28T14:40:58;8.52;;;3.72;;
28862;SDS011;15994;51.796;13.006;2023-02-28T14:43:28;6.43;;;3.70;;
28862;SDS011;15994;51.796;13.006;2023-02-28T14:46:04;7.93;;;3.63;;
28862;SDS011;15994;51.796;13.006;2023-02-28T14:48:32;7.35;;;3.95;;
28862;SDS011;15994;51.796;13.006;2023-02-28T14:51:00;6.75;;;3.65;;
28862;SDS011;15994;51.796;13.006;2023-02-28T14:53:28;9.90;;;4.47;;
28862;SDS011;15994;51.796;13.006;2023-02-28T14:55:56;8.10;;;5.05;;
28862;SDS011;15994;51.796;13.006;2023-02-28T14:58:26;9.05;;;5.05;;
28862;SDS011;15994;51.796;13.006;2023-02-28T15:01:01;7.47;;;3.50;;
28862;SDS011;15994;51.796;13.006;2023-02-28T15:05:56;7.00;;;4.32;;
28862;SDS011;15994;51.796;13.006;2023-02-28T15:08:25;7.53;;;4.10;;
28862;SDS011;15994;51.796;13.006;2023-02-28T15:11:07;10.68;;;7.50;;
28862;SDS011;15994;51.796;13.006;2023-02-28T15:16:10;8.85;;;4.97;;
28862;SDS011;15994;51.796;13.006;2023-02-28T15:18:46;7.68;;;4.63;;
28862;SDS011;15994;51.796;13.006;2023-02-28T15:21:38;9.57;;;4.63;;
28862;SDS011;15994;51.796;13.006;2023-02-28T15:24:13;7.32;;;4.18;;
28862;SDS011;15994;51.796;13.006;2023-02-28T15:26:55;6.90;;;3.58;;
28862;SDS011;15994;51.796;13.006;2023-02-28T15:29:25;9.70;;;4.50;;
28862;SDS011;15994;51.796;13.006;2023-02-28T15:31:57;7.50;;;4.47;;
28862;SDS011;15994;51.796;13.006;2023-02-28T15:36:59;11.32;;;5.15;;
28862;SDS011;15994;51.796;13.006;2023-02-28T15:39:27;8.25;;;4.00;;
28862;SDS011;15994;51.796;13.006;2023-02-28T15:42:11;11.48;;;4.22;;
28862;SDS011;15994;51.796;13.006;2023-02-28T15:44:38;8.55;;;4.82;;
28862;SDS011;15994;51.796;13.006;2023-02-28T15:47:06;9.88;;;4.78;;
28862;SDS011;15994;51.796;13.006;2023-02-28T15:49:45;9.57;;;4.88;;
28862;SDS011;15994;51.796;13.006;2023-02-28T15:52:16;8.07;;;4.60;;
28862;SDS011;15994;51.796;13.006;2023-02-28T15:54:45;6.93;;;4.18;;
28862;SDS011;15994;51.796;13.006;2023-02-28T15:57:13;9.40;;;3.78;;
28862;SDS011;15994;51.796;13.006;2023-02-28T15:59:54;11.48;;;6.05;;
28862;SDS011;15994;51.796;13.006;2023-02-28T16:02:30;7.32;;;4.10;;
28862;SDS011;15994;51.796;13.006;2023-02-28T16:07:37;10.35;;;4.43;;
28862;SDS011;15994;51.796;13.006;2023-02-28T16:10:06;9.43;;;4.50;;
28862;SDS011;15994;51.796;13.006;2023-02-28T16:12:35;8.38;;;4.40;;
28862;SDS011;15994;51.796;13.006;2023-02-28T16:15:05;8.77;;;4.63;;
28862;SDS011;15994;51.796;13.006;2023-02-28T16:17:46;6.18;;;3.78;;
28862;SDS011;15994;51.796;13.006;2023-02-28T16:22:44;8.95;;;5.10;;
28862;SDS011;15994;51.796;13.006;2023-02-28T16:25:15;10.00;;;4.70;;
28862;SDS011;15994;51.796;13.006;2023-02-28T16:27:44;11.63;;;5.80;;
28862;SDS011;15994;51.796;13.006;2023-02-28T16:30:24;8.38;;;4.93;;
28862;SDS011;15994;51.796;13.006;2023-02-28T16:32:54;9.60;;;5.30;;
28862;SDS011;15994;51.796;13.006;2023-02-28T16:35:21;9.77;;;5.63;;
28862;SDS011;15994;51.796;13.006;2023-02-28T16:37:52;13.18;;;7.88;;
28862;SDS011;15994;51.796;13.006;2023-02-28T16:40:21;17.75;;;9.75;;
28862;SDS011;15994;51.796;13.006;2023-02-28T16:42:51;12.77;;;6.53;;
28862;SDS011;15994;51.796;13.006;2023-02-28T16:45:23;14.27;;;6.63;;
28862;SDS011;15994;51.796;13.006;2023-02-28T16:47:54;13.20;;;8.43;;
28862;SDS011;15994;51.796;13.006;2023-02-28T16:50:22;31.17;;;18.77;;
28862;SDS011;15994;51.796;13.006;2023-02-28T16:52:50;35.88;;;20.70;;
28862;SDS011;15994;51.796;13.006;2023-02-28T16:55:19;48.28;;;27.35;;
28862;SDS011;15994;51.796;13.006;2023-02-28T16:57:48;43.85;;;22.90;;
28862;SDS011;15994;51.796;13.006;2023-02-28T17:00:18;25.00;;;12.85;;
28862;SDS011;15994;51.796;13.006;2023-02-28T17:02:45;23.02;;;11.10;;
28862;SDS011;15994;51.796;13.006;2023-02-28T17:05:11;21.48;;;10.70;;
28862;SDS011;15994;51.796;13.006;2023-02-28T17:07:39;14.23;;;8.40;;
28862;SDS011;15994;51.796;13.006;2023-02-28T17:10:14;17.67;;;9.77;;
28862;SDS011;15994;51.796;13.006;2023-02-28T17:15:09;26.13;;;15.70;;
28862;SDS011;15994;51.796;13.006;2023-02-28T17:17:38;28.63;;;18.55;;
28862;SDS011;15994;51.796;13.006;2023-02-28T17:20:05;16.55;;;7.40;;
28862;SDS011;15994;51.796;13.006;2023-02-28T17:22:32;17.55;;;8.82;;
28862;SDS011;15994;51.796;13.006;2023-02-28T17:24:59;16.73;;;12.98;;
28862;SDS011;15994;51.796;13.006;2023-02-28T17:27:25;13.32;;;8.65;;
28862;SDS011;15994;51.796;13.006;2023-02-28T17:29:52;13.05;;;7.78;;
28862;SDS011;15994;51.796;13.006;2023-02-28T17:32:18;8.23;;;5.05;;
28862;SDS011;15994;51.796;13.006;2023-02-28T17:34:45;10.52;;;5.53;;
28862;SDS011;15994;51.796;13.006;2023-02-28T17:37:11;14.07;;;7.50;;